createdAt,value
2023-04-11T00:00:01.133Z,1.27
2023-04-11T00:02:40.974Z,0.90
2023-04-11T00:05:10.073Z,0.70
2023-04-11T00:07:37.811Z,1.13
2023-04-11T00:10:07.169Z,1.00
2023-04-11T00:12:35.008Z,1.00
2023-04-11T00:15:03.743Z,1.07
2023-04-11T00:17:31.837Z,1.10
2023-04-11T00:20:08.116Z,1.10
2023-04-11T00:22:36.167Z,1.23
2023-04-11T00:25:04.013Z,1.43
2023-04-11T00:27:31.800Z,1.40
2023-04-11T00:29:59.697Z,1.40
2023-04-11T00:32:27.890Z,0.90
2023-04-11T00:34:56.272Z,0.93
2023-04-11T00:37:25.629Z,0.80
2023-04-11T00:39:54.088Z,1.20
2023-04-11T00:42:22.994Z,0.93
2023-04-11T00:44:51.873Z,1.20
2023-04-11T00:47:20.309Z,1.10
2023-04-11T00:49:48.153Z,1.30
2023-04-11T00:52:15.932Z,1.10
2023-04-11T00:54:45.379Z,1.00
2023-04-11T00:57:13.644Z,1.40
2023-04-11T00:59:42.635Z,1.30
2023-04-11T01:02:10.634Z,1.30
2023-04-11T01:04:38.835Z,1.40
2023-04-11T01:07:08.665Z,1.47
2023-04-11T01:09:37.624Z,1.40
2023-04-11T01:12:07.905Z,1.30
2023-04-11T01:14:35.694Z,1.30
2023-04-11T01:17:03.752Z,1.53
2023-04-11T01:19:31.997Z,1.47
2023-04-11T01:22:02.596Z,1.60
2023-04-11T01:24:33.056Z,1.90
2023-04-11T01:27:01.752Z,1.50
2023-04-11T01:29:30.173Z,1.80
2023-04-11T01:31:58.080Z,1.40
2023-04-11T01:34:29.064Z,1.50
2023-04-11T01:36:57.808Z,2.00
2023-04-11T01:39:26.079Z,2.23
2023-04-11T01:41:57.036Z,1.80
2023-04-11T01:44:27.607Z,1.73
2023-04-11T01:46:56.580Z,2.10
2023-04-11T01:49:25.833Z,1.90
2023-04-11T01:51:53.595Z,1.87
2023-04-11T01:54:21.653Z,1.70
2023-04-11T01:56:49.602Z,2.07
2023-04-11T01:59:19.469Z,2.20
2023-04-11T02:01:47.510Z,2.23
2023-04-11T02:04:15.482Z,2.00
2023-04-11T02:06:45.491Z,2.10
2023-04-11T02:09:13.325Z,2.20
2023-04-11T02:11:41.130Z,2.70
2023-04-11T02:14:09.814Z,2.83
2023-04-11T02:16:51.986Z,2.60
2023-04-11T02:19:21.012Z,3.17
2023-04-11T02:21:49.255Z,3.17
2023-04-11T02:24:17.067Z,3.40
2023-04-11T02:26:44.878Z,3.67
2023-04-11T02:29:12.651Z,3.23
2023-04-11T02:31:40.598Z,2.83
2023-04-11T02:34:09.937Z,3.43
2023-04-11T02:36:37.744Z,3.60
2023-04-11T02:39:05.641Z,4.13
2023-04-11T02:41:33.472Z,4.73
2023-04-11T02:44:01.644Z,4.23
2023-04-11T02:46:29.556Z,4.20
2023-04-11T02:48:58.032Z,4.07
2023-04-11T02:51:27.291Z,4.07
2023-04-11T02:53:55.252Z,4.17
2023-04-11T02:56:23.223Z,4.70
2023-04-11T02:58:55.678Z,4.63
2023-04-11T03:01:26.198Z,4.97
2023-04-11T03:03:55.899Z,5.43
2023-04-11T03:06:29.671Z,4.63
2023-04-11T03:09:01.104Z,5.13
2023-04-11T03:11:28.919Z,4.87
2023-04-11T03:13:58.023Z,4.67
2023-04-11T03:16:28.222Z,4.77
2023-04-11T03:18:56.356Z,4.03
2023-04-11T03:21:24.413Z,4.93
2023-04-11T03:23:53.850Z,5.27
2023-04-11T03:26:26.989Z,5.20
2023-04-11T03:28:58.679Z,5.30
2023-04-11T03:31:31.033Z,5.60
2023-04-11T03:33:59.642Z,5.10
2023-04-11T03:36:28.001Z,5.07
2023-04-11T03:38:57.839Z,4.60
2023-04-11T03:41:26.039Z,4.60
2023-04-11T03:43:53.795Z,4.27
2023-04-11T03:46:22.100Z,4.13
2023-04-11T03:48:49.988Z,4.73
2023-04-11T03:51:19.443Z,4.37
2023-04-11T03:53:54.628Z,5.00
2023-04-11T03:56:37.186Z,4.80
2023-04-11T03:59:06.274Z,5.10
2023-04-11T04:01:46.987Z,5.03
2023-04-11T04:04:15.468Z,5.17
2023-04-11T04:06:47.243Z,4.80
2023-04-11T04:09:15.271Z,5.10
2023-04-11T04:11:50.481Z,5.07
2023-04-11T04:14:21.410Z,4.80
2023-04-11T04:16:49.470Z,5.63
2023-04-11T04:19:18.298Z,5.73
2023-04-11T04:21:47.875Z,4.70
2023-04-11T04:24:17.732Z,4.97
2023-04-11T04:27:00.876Z,5.03
2023-04-11T04:29:39.215Z,6.07
2023-04-11T04:32:11.116Z,4.90
2023-04-11T04:34:46.919Z,5.07
2023-04-11T04:37:22.918Z,5.27
2023-04-11T04:39:56.912Z,4.83
2023-04-11T04:42:30.972Z,5.47
2023-04-11T04:45:04.141Z,6.00
2023-04-11T04:47:33.833Z,4.80
2023-04-11T04:50:02.200Z,5.70
2023-04-11T04:52:31.602Z,5.60
2023-04-11T04:55:01.290Z,5.77
2023-04-11T04:57:32.182Z,5.73
2023-04-11T05:00:01.285Z,5.17
2023-04-11T05:02:30.844Z,5.70
2023-04-11T05:05:03.965Z,6.40
2023-04-11T05:07:31.983Z,5.73
2023-04-11T05:10:00.399Z,5.33
2023-04-11T05:12:30.992Z,5.50
2023-04-11T05:15:04.530Z,6.33
2023-04-11T05:17:33.442Z,6.93
2023-04-11T05:20:01.271Z,5.37
2023-04-11T05:22:29.980Z,5.60
2023-04-11T05:24:58.068Z,5.13
2023-04-11T05:27:27.374Z,4.93
2023-04-11T05:29:56.869Z,5.27
2023-04-11T05:32:25.119Z,5.63
2023-04-11T05:34:58.118Z,4.67
2023-04-11T05:38:05.704Z,4.60
2023-04-11T05:40:33.752Z,4.60
2023-04-11T05:43:01.607Z,5.30
2023-04-11T05:45:31.089Z,4.40
2023-04-11T05:47:59.066Z,4.20
2023-04-11T05:50:27.772Z,3.90
2023-04-11T05:52:56.134Z,4.30
2023-04-11T05:55:24.069Z,5.40
2023-04-11T05:57:51.992Z,4.60
2023-04-11T06:00:20.732Z,4.60
2023-04-11T06:02:50.921Z,4.80
2023-04-11T06:05:21.255Z,4.20
2023-04-11T06:07:49.224Z,4.57
2023-04-11T06:10:17.261Z,5.13
2023-04-11T06:12:45.266Z,4.67
2023-04-11T06:15:13.938Z,3.80
2023-04-11T06:17:41.870Z,4.30
2023-04-11T06:20:11.694Z,4.33
2023-04-11T06:22:40.328Z,4.57
2023-04-11T06:25:09.244Z,3.13
2023-04-11T06:27:37.511Z,3.67
2023-04-11T06:30:06.250Z,4.53
2023-04-11T06:32:34.198Z,4.27
2023-04-11T06:35:02.151Z,4.07
2023-04-11T06:37:31.423Z,4.30
2023-04-11T06:40:00.130Z,3.83
2023-04-11T06:42:28.296Z,3.57
2023-04-11T06:44:56.245Z,3.40
2023-04-11T06:47:24.235Z,3.50
2023-04-11T06:49:52.234Z,3.87
2023-04-11T06:52:20.154Z,3.83
2023-04-11T06:54:50.100Z,3.47
2023-04-11T06:57:18.952Z,3.17
2023-04-11T06:59:46.900Z,3.90
2023-04-11T07:02:16.010Z,3.87
2023-04-11T07:04:44.277Z,3.57
2023-04-11T07:07:12.251Z,3.83
2023-04-11T07:09:40.275Z,3.60
2023-04-11T07:12:09.592Z,3.80
2023-04-11T07:14:37.509Z,3.87
2023-04-11T07:17:05.363Z,4.13
2023-04-11T07:19:33.243Z,3.13
2023-04-11T07:22:01.240Z,3.67
2023-04-11T07:24:30.581Z,3.60
2023-04-11T07:27:01.634Z,4.00
2023-04-11T07:29:31.873Z,3.97
2023-04-11T07:31:59.877Z,3.50
2023-04-11T07:34:27.835Z,3.40
2023-04-11T07:37:00.768Z,2.80
2023-04-11T07:39:28.856Z,2.57
2023-04-11T07:41:56.840Z,2.43
2023-04-11T07:44:24.707Z,3.00
2023-04-11T07:46:53.997Z,2.30
2023-04-11T07:49:21.906Z,2.07
2023-04-11T07:51:49.789Z,2.63
2023-04-11T07:54:17.702Z,3.17
2023-04-11T07:56:45.535Z,2.57
2023-04-11T07:59:16.045Z,2.60
2023-04-11T08:01:44.423Z,2.30
2023-04-11T08:04:14.253Z,2.50
2023-04-11T08:06:43.480Z,3.03
2023-04-11T08:09:11.432Z,3.13
2023-04-11T08:11:39.526Z,2.93
2023-04-11T08:14:08.477Z,2.72
2023-04-11T08:16:36.839Z,2.45
2023-04-11T08:19:04.778Z,2.83
2023-04-11T08:21:34.642Z,3.13
2023-04-11T08:24:02.744Z,2.90
2023-04-11T08:26:31.075Z,3.72
2023-04-11T08:28:59.060Z,2.60
2023-04-11T08:31:28.634Z,3.13
2023-04-11T08:33:59.212Z,3.05
2023-04-11T08:36:28.626Z,2.75
2023-04-11T08:39:00.175Z,2.67
2023-04-11T08:41:30.762Z,3.08
2023-04-11T08:43:58.980Z,2.20
2023-04-11T08:46:27.081Z,2.60
2023-04-11T08:48:55.936Z,2.40
2023-04-11T08:51:26.774Z,2.95
2023-04-11T08:53:59.651Z,2.28
2023-04-11T08:56:27.983Z,3.22
2023-04-11T08:58:56.403Z,3.00
2023-04-11T09:01:28.883Z,2.40
2023-04-11T09:03:57.435Z,2.17
2023-04-11T09:06:26.747Z,2.30
2023-04-11T09:08:54.706Z,2.17
2023-04-11T09:11:24.036Z,2.05
2023-04-11T09:14:06.768Z,2.42
2023-04-11T09:16:35.326Z,2.03
2023-04-11T09:19:03.712Z,2.05
2023-04-11T09:21:31.696Z,2.35
2023-04-11T09:24:15.611Z,2.38
2023-04-11T09:26:45.105Z,1.80
2023-04-11T09:29:13.076Z,2.03
2023-04-11T09:31:42.486Z,1.70
2023-04-11T09:34:11.264Z,1.80
2023-04-11T09:36:40.524Z,2.00
2023-04-11T09:39:19.241Z,2.28
2023-04-11T09:41:49.362Z,1.40
2023-04-11T09:44:17.572Z,2.30
2023-04-11T09:46:57.789Z,2.05
2023-04-11T09:49:26.208Z,2.15
2023-04-11T09:51:55.642Z,2.03
2023-04-11T09:54:23.884Z,1.90
2023-04-11T09:56:53.644Z,1.90
2023-04-11T09:59:22.451Z,1.70
2023-04-11T10:01:52.388Z,1.88
2023-04-11T10:04:22.396Z,1.80
2023-04-11T10:07:02.238Z,1.70
2023-04-11T10:09:32.548Z,1.52
2023-04-11T10:12:01.837Z,1.88
2023-04-11T10:14:46.468Z,1.80
2023-04-11T10:17:22.793Z,1.45
2023-04-11T10:19:56.580Z,1.80
2023-04-11T10:23:00.304Z,1.30
2023-04-11T10:25:29.101Z,1.45
2023-04-11T10:28:02.021Z,8.65
2023-04-11T10:31:01.569Z,1.73
2023-04-11T10:33:29.551Z,1.50
2023-04-11T10:35:59.072Z,1.60
2023-04-11T10:38:49.229Z,2.03
2023-04-11T10:41:26.954Z,1.52
2023-04-11T10:44:15.606Z,1.60
2023-04-11T10:46:48.657Z,1.90
2023-04-11T10:49:36.464Z,1.50
2023-04-11T10:52:22.239Z,1.80
2023-04-11T10:54:51.504Z,1.95
2023-04-11T10:57:20.405Z,1.33
2023-04-11T11:00:13.389Z,2.50
2023-04-11T11:02:42.261Z,1.90
2023-04-11T11:05:18.722Z,1.77
2023-04-11T11:07:51.719Z,1.83
2023-04-11T11:10:40.246Z,2.30
2023-04-11T11:13:08.388Z,2.20
2023-04-11T11:15:38.567Z,1.95
2023-04-11T11:18:10.890Z,1.98
2023-04-11T11:20:38.991Z,2.15
2023-04-11T11:23:09.050Z,2.35
2023-04-11T11:25:37.685Z,2.20
2023-04-11T11:28:07.415Z,2.22
2023-04-11T11:30:38.083Z,1.83
2023-04-11T11:33:24.576Z,2.00
2023-04-11T11:35:54.126Z,2.30
2023-04-11T11:38:23.188Z,2.10
2023-04-11T11:40:51.635Z,2.40
2023-04-11T11:43:19.893Z,1.95
2023-04-11T11:46:08.674Z,1.80
2023-04-11T11:48:37.411Z,1.83
2023-04-11T11:51:06.172Z,1.73
2023-04-11T11:53:34.515Z,1.85
2023-04-11T11:56:13.622Z,2.15
2023-04-11T11:58:45.828Z,1.67
2023-04-11T12:01:18.374Z,2.33
2023-04-11T12:03:51.481Z,1.80
2023-04-11T12:06:20.344Z,1.65
2023-04-11T12:08:51.963Z,1.83
2023-04-11T12:11:20.126Z,2.08
2023-04-11T12:13:53.387Z,1.70
2023-04-11T12:16:24.594Z,1.77
2023-04-11T12:18:52.956Z,1.60
2023-04-11T12:21:20.848Z,2.05
2023-04-11T12:23:48.900Z,1.90
2023-04-11T12:26:17.880Z,1.73
2023-04-11T12:28:46.305Z,1.50
2023-04-11T12:31:14.759Z,1.83
2023-04-11T12:33:44.062Z,1.40
2023-04-11T12:36:13.210Z,2.10
2023-04-11T12:38:41.203Z,1.77
2023-04-11T12:43:42.175Z,1.90
2023-04-11T12:46:11.569Z,2.20
2023-04-11T12:48:39.470Z,2.03
2023-04-11T12:51:12.678Z,2.00
2023-04-11T12:53:40.760Z,1.98
2023-04-11T12:56:09.830Z,1.60
2023-04-11T12:58:38.091Z,1.73
2023-04-11T13:01:07.522Z,2.10
2023-04-11T13:03:35.568Z,1.85
2023-04-11T13:06:03.699Z,1.58
2023-04-11T13:08:32.996Z,1.70
2023-04-11T13:11:00.956Z,1.40
2023-04-11T13:13:29.170Z,1.73
2023-04-11T13:15:57.267Z,1.42
2023-04-11T13:18:25.535Z,1.35
2023-04-11T13:20:53.475Z,1.70
2023-04-11T13:23:21.527Z,1.40
2023-04-11T13:25:51.354Z,1.55
2023-04-11T13:28:19.685Z,1.50
2023-04-11T13:30:47.698Z,1.60
2023-04-11T13:33:15.701Z,1.42
2023-04-11T13:35:43.605Z,1.50
2023-04-11T13:38:12.754Z,1.33
2023-04-11T13:40:42.849Z,1.13
2023-04-11T13:43:12.492Z,1.30
2023-04-11T13:45:40.965Z,1.13
2023-04-11T13:48:09.026Z,1.17
2023-04-11T13:50:37.120Z,1.00
2023-04-11T13:53:05.132Z,1.15
2023-04-11T13:55:33.034Z,1.00
2023-04-11T13:58:00.981Z,1.50
2023-04-11T14:00:30.340Z,1.38
2023-04-11T14:02:58.422Z,1.25
2023-04-11T14:05:27.076Z,1.20
2023-04-11T14:07:55.051Z,1.40
2023-04-11T14:10:23.037Z,1.40
2023-04-11T14:12:51.270Z,1.35
2023-04-11T14:15:20.503Z,1.52
2023-04-11T14:17:51.088Z,1.00
2023-04-11T14:20:19.097Z,1.00
2023-04-11T14:22:47.342Z,1.25
2023-04-11T14:25:15.802Z,1.10
2023-04-11T14:27:43.971Z,2.05
2023-04-11T14:30:13.571Z,1.20
2023-04-11T14:32:43.143Z,1.10
2023-04-11T14:35:15.671Z,1.20
2023-04-11T14:37:44.886Z,1.45
2023-04-11T14:40:14.129Z,1.58
2023-04-11T14:42:42.426Z,5.45
2023-04-11T14:45:10.724Z,1.48
2023-04-11T14:47:39.793Z,1.10
2023-04-11T14:50:09.173Z,1.30
2023-04-11T14:52:39.265Z,1.58
2023-04-11T14:55:08.727Z,1.40
2023-04-11T14:57:50.010Z,1.45
2023-04-11T15:00:22.787Z,1.10
2023-04-11T15:02:53.556Z,1.27
2023-04-11T15:05:22.717Z,1.27
2023-04-11T15:07:53.595Z,1.38
2023-04-11T15:10:22.654Z,1.70
2023-04-11T15:12:50.674Z,2.08
2023-04-11T15:15:18.677Z,6.50
2023-04-11T15:17:48.522Z,1.33
2023-04-11T15:20:17.242Z,1.17
2023-04-11T15:22:46.569Z,1.35
2023-04-11T15:25:16.756Z,1.35
2023-04-11T15:27:45.084Z,1.90
2023-04-11T15:30:13.615Z,1.38
2023-04-11T15:32:44.258Z,1.20
2023-04-11T15:35:12.453Z,1.35
2023-04-11T15:37:41.093Z,1.17
2023-04-11T15:40:12.297Z,1.42
2023-04-11T15:42:43.029Z,1.48
2023-04-11T15:45:14.350Z,1.20
2023-04-11T15:47:42.333Z,1.40
2023-04-11T15:50:12.035Z,1.27
2023-04-11T15:52:39.993Z,1.52
2023-04-11T15:55:09.092Z,1.67
2023-04-11T15:57:37.302Z,8.60
2023-04-11T16:00:09.712Z,2.28
2023-04-11T16:02:38.150Z,4.88
2023-04-11T16:05:07.856Z,1.85
2023-04-11T16:07:35.849Z,1.40
2023-04-11T16:10:04.154Z,1.40
2023-04-11T16:12:32.098Z,1.42
2023-04-11T16:15:00.057Z,1.40
2023-04-11T16:17:29.322Z,1.52
2023-04-11T16:19:57.267Z,1.58
2023-04-11T16:22:25.079Z,1.85
2023-04-11T16:24:52.932Z,1.55
2023-04-11T16:27:20.878Z,1.52
2023-04-11T16:29:48.815Z,1.40
2023-04-11T16:32:16.684Z,1.83
2023-04-11T16:34:45.944Z,1.60
2023-04-11T16:37:14.119Z,1.05
2023-04-11T16:39:42.174Z,1.65
2023-04-11T16:42:10.768Z,1.50
2023-04-11T16:44:38.609Z,1.48
2023-04-11T16:47:06.465Z,1.73
2023-04-11T16:49:35.715Z,1.73
2023-04-11T16:52:05.264Z,1.58
2023-04-11T16:54:33.086Z,1.80
2023-04-11T16:57:01.603Z,2.25
2023-04-11T16:59:30.378Z,1.70
2023-04-11T17:01:58.526Z,1.60
2023-04-11T17:04:27.146Z,1.60
2023-04-11T17:06:55.893Z,1.73
2023-04-11T17:09:25.471Z,2.60
2023-04-11T17:11:53.414Z,1.80
2023-04-11T17:14:21.973Z,1.50
2023-04-11T17:16:50.354Z,2.20
2023-04-11T17:19:18.623Z,1.60
2023-04-11T17:21:46.713Z,1.85
2023-04-11T17:24:14.749Z,1.88
2023-04-11T17:26:44.096Z,1.55
2023-04-11T17:29:12.922Z,1.75
2023-04-11T17:31:40.922Z,1.83
2023-04-11T17:34:09.127Z,1.67
2023-04-11T17:36:42.641Z,1.80
2023-04-11T17:39:11.862Z,1.70
2023-04-11T17:41:40.181Z,1.73
2023-04-11T17:44:09.675Z,2.22
2023-04-11T17:46:37.876Z,2.10
2023-04-11T17:49:06.257Z,2.05
2023-04-11T17:51:34.727Z,1.95
2023-04-11T17:54:03.326Z,1.80
2023-04-11T17:56:31.371Z,1.60
2023-04-11T17:58:59.403Z,1.80
2023-04-11T18:01:32.217Z,1.73
2023-04-11T18:04:07.610Z,1.70
2023-04-11T18:06:35.624Z,1.90
2023-04-11T18:09:04.232Z,1.65
2023-04-11T18:11:32.543Z,2.10
2023-04-11T18:14:00.696Z,1.80
2023-04-11T18:16:30.125Z,1.75
2023-04-11T18:18:58.778Z,2.00
2023-04-11T18:21:26.692Z,1.70
2023-04-11T18:23:54.933Z,2.00
2023-04-11T18:26:31.390Z,1.90
2023-04-11T18:29:00.371Z,1.65
2023-04-11T18:31:34.805Z,1.83
2023-04-11T18:34:03.576Z,2.10
2023-04-11T18:36:33.076Z,1.67
2023-04-11T18:39:01.082Z,2.28
2023-04-11T18:41:29.001Z,1.60
2023-04-11T18:43:57.023Z,2.20
2023-04-11T18:46:25.394Z,2.38
2023-04-11T18:48:54.694Z,1.83
2023-04-11T18:51:22.736Z,2.05
2023-04-11T18:53:50.716Z,1.67
2023-04-11T18:56:18.563Z,1.95
2023-04-11T18:58:49.145Z,2.28
2023-04-11T19:01:19.099Z,2.15
2023-04-11T19:03:47.519Z,2.30
2023-04-11T19:06:17.171Z,1.80
2023-04-11T19:08:45.847Z,2.20
2023-04-11T19:11:13.718Z,2.03
2023-04-11T19:13:41.711Z,2.35
2023-04-11T19:16:09.689Z,2.30
2023-04-11T19:18:37.599Z,1.95
2023-04-11T19:21:05.745Z,2.05
2023-04-11T19:23:35.007Z,2.00
2023-04-11T19:26:03.183Z,1.90
2023-04-11T19:28:31.119Z,1.60
2023-04-11T19:30:59.056Z,2.00
2023-04-11T19:33:26.853Z,1.98
2023-04-11T19:35:55.144Z,2.60
2023-04-11T19:38:23.112Z,2.10
2023-04-11T19:40:52.337Z,2.17
2023-04-11T19:43:20.889Z,2.20
2023-04-11T19:45:48.760Z,2.40
2023-04-11T19:48:16.993Z,2.40
2023-04-11T19:50:45.066Z,2.30
2023-04-11T19:53:13.019Z,2.20
2023-04-11T19:55:41.123Z,2.28
2023-04-11T19:58:11.041Z,2.50
2023-04-11T20:00:39.008Z,3.10
2023-04-11T20:03:07.938Z,2.97
2023-04-11T20:05:36.205Z,2.47
2023-04-11T20:08:04.207Z,2.50
2023-04-11T20:10:32.193Z,2.80
2023-04-11T20:13:00.099Z,2.63
2023-04-11T20:15:29.486Z,2.50
2023-04-11T20:17:57.555Z,2.73
2023-04-11T20:20:27.888Z,2.50
2023-04-11T20:22:55.864Z,2.40
2023-04-11T20:25:24.214Z,2.70
2023-04-11T20:27:52.335Z,2.50
2023-04-11T20:30:20.990Z,2.33
2023-04-11T20:32:50.247Z,2.33
2023-04-11T20:35:19.270Z,2.33
2023-04-11T20:37:50.007Z,1.93
2023-04-11T20:40:18.372Z,2.93
2023-04-11T20:42:47.485Z,2.83
2023-04-11T20:45:17.547Z,2.50
2023-04-11T20:47:47.378Z,2.27
2023-04-11T20:50:19.233Z,2.87
2023-04-11T20:52:50.527Z,2.33
2023-04-11T20:55:18.753Z,2.80
2023-04-11T20:57:46.546Z,2.30
2023-04-11T21:00:17.535Z,2.47
2023-04-11T21:02:47.359Z,2.00
2023-04-11T21:05:18.105Z,2.47
2023-04-11T21:07:46.071Z,2.03
2023-04-11T21:10:15.560Z,2.60
2023-04-11T21:12:43.738Z,2.83
2023-04-11T21:15:12.021Z,2.20
2023-04-11T21:17:40.384Z,2.70
2023-04-11T21:20:18.313Z,2.57
2023-04-11T21:22:49.395Z,2.17
2023-04-11T21:25:17.576Z,2.40
2023-04-11T21:27:45.780Z,2.20
2023-04-11T21:30:14.679Z,2.63
2023-04-11T21:32:42.602Z,2.40
2023-04-11T21:35:12.532Z,2.20
2023-04-11T21:37:40.345Z,2.80
2023-04-11T21:40:10.527Z,2.20
2023-04-11T21:42:38.309Z,2.33
2023-04-11T21:45:08.255Z,2.30
2023-04-11T21:47:36.229Z,2.07
2023-04-11T21:50:04.189Z,2.10
2023-04-11T21:52:31.973Z,2.17
2023-04-11T21:54:59.642Z,2.37
2023-04-11T21:57:28.760Z,2.17
2023-04-11T21:59:56.582Z,2.43
2023-04-11T22:02:24.499Z,2.60
2023-04-11T22:05:05.563Z,3.00
2023-04-11T22:07:46.087Z,2.80
2023-04-11T22:10:14.215Z,2.70
2023-04-11T22:12:45.608Z,3.43
2023-04-11T22:15:14.277Z,2.50
2023-04-11T22:17:43.638Z,2.47
2023-04-11T22:20:12.584Z,2.50
2023-04-11T22:22:40.397Z,3.13
2023-04-11T22:25:10.674Z,1.97
2023-04-11T22:27:38.664Z,1.93
2023-04-11T22:30:09.859Z,2.23
2023-04-11T22:32:38.115Z,2.73
2023-04-11T22:35:08.118Z,2.17
2023-04-11T22:37:37.718Z,2.53
2023-04-11T22:40:06.990Z,2.10
2023-04-11T22:42:35.703Z,2.50
2023-04-11T22:45:04.139Z,2.13
2023-04-11T22:47:34.431Z,2.40
2023-04-11T22:50:03.425Z,2.20
2023-04-11T22:52:31.285Z,1.83
2023-04-11T22:54:59.091Z,2.10
2023-04-11T22:57:26.860Z,2.40
2023-04-11T22:59:54.650Z,2.10
2023-04-11T23:02:23.132Z,1.70
2023-04-11T23:04:52.545Z,2.67
2023-04-11T23:07:20.343Z,2.37
2023-04-11T23:09:48.112Z,1.97
2023-04-11T23:12:16.307Z,2.57
2023-04-11T23:14:53.228Z,2.30
2023-04-11T23:17:21.306Z,1.87
2023-04-11T23:19:49.288Z,1.83
2023-04-11T23:22:18.388Z,1.60
2023-04-11T23:24:46.949Z,1.80
2023-04-11T23:27:14.667Z,1.73
2023-04-11T23:29:42.570Z,1.90
2023-04-11T23:32:10.351Z,2.10
2023-04-11T23:34:38.163Z,2.20
2023-04-11T23:37:05.976Z,1.73
2023-04-11T23:39:35.100Z,1.83
2023-04-11T23:42:02.846Z,1.60
2023-04-11T23:44:30.686Z,1.90
2023-04-11T23:47:00.207Z,1.60
2023-04-11T23:49:27.998Z,1.73
2023-04-11T23:51:55.798Z,1.70
2023-04-11T23:54:23.908Z,1.80
2023-04-11T23:56:53.019Z,1.50
2023-04-11T23:59:20.823Z,1.53
